createdAt,value
2018-04-12T00:00:52.762Z,994.33
2018-04-12T00:01:32.984Z,994.28
2018-04-12T00:02:13.410Z,994.27
2018-04-12T00:02:53.794Z,994.27
2018-04-12T00:03:34.221Z,994.25
2018-04-12T00:04:14.617Z,994.2
2018-04-12T00:04:55.031Z,994.2
2018-04-12T00:05:35.465Z,994.2
2018-04-12T00:06:15.875Z,994.22
2018-04-12T00:06:56.305Z,994.24
2018-04-12T00:07:36.690Z,994.24
2018-04-12T00:08:17.115Z,994.25
2018-04-12T00:08:57.523Z,994.21
2018-04-12T00:09:37.955Z,994.23
2018-04-12T00:10:18.319Z,994.26
2018-04-12T00:10:58.711Z,994.21
2018-04-12T00:11:39.129Z,994.16
2018-04-12T00:12:19.547Z,994.24
2018-04-12T00:12:59.937Z,994.18
2018-04-12T00:13:40.364Z,994.19
2018-04-12T00:14:20.768Z,994.18
2018-04-12T00:15:01.128Z,994.17
2018-04-12T00:15:41.547Z,994.18
2018-04-12T00:16:21.975Z,994.15
2018-04-12T00:17:02.320Z,994.15
2018-04-12T00:17:42.762Z,994.14
2018-04-12T00:18:23.165Z,994.14
2018-04-12T00:19:03.607Z,994.12
2018-04-12T00:19:43.985Z,994.14
2018-04-12T00:20:24.393Z,994.1
2018-04-12T00:21:04.846Z,994.12
2018-04-12T00:21:45.196Z,994.09
2018-04-12T00:22:25.591Z,994.02
2018-04-12T00:23:06.031Z,994.05
2018-04-12T00:23:46.471Z,994.03
2018-04-12T00:24:26.821Z,993.98
2018-04-12T00:25:07.209Z,993.98
2018-04-12T00:25:47.630Z,993.97
2018-04-12T00:26:28.044Z,993.93
2018-04-12T00:27:08.489Z,993.94
2018-04-12T00:27:48.855Z,993.89
2018-04-12T00:28:29.263Z,993.85
2018-04-12T00:29:09.657Z,993.86
2018-04-12T00:29:50.083Z,993.81
2018-04-12T00:30:30.467Z,993.81
2018-04-12T00:31:10.925Z,993.77
2018-04-12T00:31:51.311Z,993.83
2018-04-12T00:32:31.721Z,993.8
2018-04-12T00:33:12.104Z,993.78
2018-04-12T00:33:52.539Z,993.73
2018-04-12T00:34:32.909Z,993.72
2018-04-12T00:35:13.325Z,993.7
2018-04-12T00:35:53.714Z,993.66
2018-04-12T00:36:34.133Z,993.66
2018-04-12T00:37:14.609Z,993.7
2018-04-12T00:37:55.021Z,993.69
2018-04-12T00:40:12.769Z,993.71
2018-04-12T00:40:53.057Z,993.67
2018-04-12T00:41:33.425Z,993.71
2018-04-12T00:42:13.917Z,993.7
2018-04-12T00:42:54.233Z,993.71
2018-04-12T00:43:34.629Z,993.67
2018-04-12T00:44:15.021Z,993.71
2018-04-12T00:44:55.458Z,993.69
2018-04-12T00:45:35.834Z,993.65
2018-04-12T00:46:16.273Z,993.66
2018-04-12T00:46:56.645Z,993.7
2018-04-12T00:47:37.034Z,993.67
2018-04-12T00:48:17.403Z,993.63
2018-04-12T00:48:57.790Z,993.65
2018-04-12T00:49:38.216Z,993.65
2018-04-12T00:50:18.614Z,993.67
2018-04-12T00:50:59.007Z,993.64
2018-04-12T00:51:39.432Z,993.64
2018-04-12T00:52:19.840Z,993.64
2018-04-12T00:53:00.205Z,993.6
2018-04-12T00:53:40.625Z,993.62
2018-04-12T00:54:20.988Z,993.65
2018-04-12T00:55:01.384Z,993.62
2018-04-12T00:55:41.782Z,993.63
2018-04-12T00:57:34.419Z,993.67
2018-04-12T00:58:14.775Z,993.63
2018-04-12T00:58:55.162Z,993.63
2018-04-12T00:59:35.576Z,993.61
2018-04-12T01:00:16.000Z,993.58
2018-04-12T01:00:56.388Z,993.59
2018-04-12T01:01:36.786Z,993.56
2018-04-12T01:02:17.193Z,993.55
2018-04-12T01:02:57.632Z,993.55
2018-04-12T01:03:38.002Z,993.55
2018-04-12T01:04:18.426Z,993.56
2018-04-12T01:04:58.840Z,993.58
2018-04-12T01:05:39.277Z,993.57
2018-04-12T01:06:19.691Z,993.6
2018-04-12T01:07:00.171Z,993.59
2018-04-12T01:07:40.518Z,993.58
2018-04-12T01:08:20.932Z,993.53
2018-04-12T01:09:01.272Z,993.55
2018-04-12T01:09:41.667Z,993.53
2018-04-12T01:10:22.147Z,993.54
2018-04-12T01:11:02.479Z,993.53
2018-04-12T01:11:42.891Z,993.52
2018-04-12T01:12:23.252Z,993.54
2018-04-12T01:13:03.717Z,993.52
2018-04-12T01:13:44.113Z,993.57
2018-04-12T01:14:24.480Z,993.54
2018-04-12T01:15:04.833Z,993.53
2018-04-12T01:15:45.232Z,993.57
2018-04-12T01:16:25.636Z,993.56
2018-04-12T01:17:06.031Z,993.55
2018-04-12T01:17:46.444Z,993.57
2018-04-12T01:18:26.830Z,993.54
2018-04-12T01:19:07.232Z,993.56
2018-04-12T01:19:47.615Z,993.5
2018-04-12T01:20:27.994Z,993.53
2018-04-12T01:21:08.432Z,993.52
2018-04-12T01:21:48.821Z,993.54
2018-04-12T01:22:29.232Z,993.52
2018-04-12T01:23:09.609Z,993.54
2018-04-12T01:23:50.016Z,993.5
2018-04-12T01:24:30.408Z,993.55
2018-04-12T01:25:10.830Z,993.48
2018-04-12T01:25:51.233Z,993.47
2018-04-12T01:26:31.588Z,993.54
2018-04-12T01:27:12.040Z,993.52
2018-04-12T01:27:52.403Z,993.5
2018-04-12T01:28:32.810Z,993.5
2018-04-12T01:29:13.258Z,993.49
2018-04-12T01:29:53.652Z,993.5
2018-04-12T01:30:34.038Z,993.49
2018-04-12T01:31:14.440Z,993.5
2018-04-12T01:31:54.809Z,993.51
2018-04-12T01:32:35.221Z,993.49
2018-04-12T01:33:15.599Z,993.52
2018-04-12T01:33:56.021Z,993.49
2018-04-12T01:34:36.471Z,993.49
2018-04-12T01:35:16.842Z,993.47
2018-04-12T01:35:57.241Z,993.49
2018-04-12T01:36:37.646Z,993.46
2018-04-12T01:37:18.025Z,993.46
2018-04-12T01:37:58.444Z,993.47
2018-04-12T01:38:38.816Z,993.47
2018-04-12T01:39:19.197Z,993.47
2018-04-12T01:39:59.631Z,993.49
2018-04-12T01:40:40.050Z,993.47
2018-04-12T01:41:20.411Z,993.5
2018-04-12T01:42:00.856Z,993.5
2018-04-12T01:42:41.213Z,993.51
2018-04-12T01:43:21.629Z,993.5
2018-04-12T01:44:02.060Z,993.52
2018-04-12T01:44:42.412Z,993.51
2018-04-12T01:45:22.862Z,993.49
2018-04-12T01:46:03.266Z,993.5
2018-04-12T01:46:43.691Z,993.48
2018-04-12T01:47:24.115Z,993.51
2018-04-12T01:48:04.537Z,993.53
2018-04-12T01:48:44.991Z,993.49
2018-04-12T01:49:25.326Z,993.5
2018-04-12T01:50:05.717Z,993.47
2018-04-12T01:50:46.117Z,993.43
2018-04-12T01:51:26.525Z,993.42
2018-04-12T01:52:06.924Z,993.42
2018-04-12T01:52:47.337Z,993.42
2018-04-12T01:53:27.741Z,993.43
2018-04-12T01:54:08.181Z,993.39
2018-04-12T01:54:48.562Z,993.42
2018-04-12T01:55:29.012Z,993.41
2018-04-12T01:56:09.381Z,993.43
2018-04-12T01:56:49.798Z,993.39
2018-04-12T01:57:30.211Z,993.38
2018-04-12T01:58:10.607Z,993.38
2018-04-12T01:58:51.028Z,993.37
2018-04-12T01:59:31.471Z,993.34
2018-04-12T02:00:11.837Z,993.32
2018-04-12T02:00:52.270Z,993.33
2018-04-12T02:01:32.635Z,993.3
2018-04-12T02:02:13.093Z,993.29
2018-04-12T02:04:25.661Z,993.23
2018-04-12T02:05:06.298Z,993.23
2018-04-12T02:05:46.750Z,993.19
2018-04-12T02:06:27.120Z,993.19
2018-04-12T02:07:07.548Z,993.19
2018-04-12T02:07:47.884Z,993.21
2018-04-12T02:08:28.307Z,993.2
2018-04-12T02:09:08.665Z,993.22
2018-04-12T02:09:49.072Z,993.18
2018-04-12T02:10:29.499Z,993.19
2018-04-12T02:11:09.894Z,993.21
2018-04-12T02:11:50.279Z,993.19
2018-04-12T02:12:30.710Z,993.21
2018-04-12T02:13:11.077Z,993.21
2018-04-12T02:13:51.472Z,993.17
2018-04-12T02:14:31.875Z,993.14
2018-04-12T02:16:59.806Z,993.12
2018-04-12T02:17:40.276Z,993.13
2018-04-12T02:18:20.631Z,993.12
2018-04-12T02:19:01.037Z,993.15
2018-04-12T02:19:41.396Z,993.08
2018-04-12T02:20:21.814Z,993.08
2018-04-12T02:21:02.207Z,993.05
2018-04-12T02:21:42.600Z,993.03
2018-04-12T02:22:23.030Z,993
2018-04-12T02:23:03.396Z,992.99
2018-04-12T02:23:43.795Z,992.97
2018-04-12T02:24:24.175Z,992.95
2018-04-12T02:25:04.559Z,992.93
2018-04-12T02:25:44.955Z,992.92
2018-04-12T02:26:25.356Z,992.89
2018-04-12T02:27:05.759Z,992.89
2018-04-12T02:27:46.150Z,992.91
2018-04-12T02:28:26.561Z,992.92
2018-04-12T02:29:06.930Z,992.91
2018-04-12T02:29:47.359Z,992.86
2018-04-12T02:30:27.746Z,992.87
2018-04-12T02:31:08.177Z,992.85
2018-04-12T02:31:48.552Z,992.87
2018-04-12T02:32:28.974Z,992.81
2018-04-12T02:33:09.361Z,992.78
2018-04-12T02:33:49.764Z,992.78
2018-04-12T02:34:30.134Z,992.74
2018-04-12T02:35:10.566Z,992.71
2018-04-12T02:35:50.962Z,992.72
2018-04-12T02:36:31.368Z,992.69
2018-04-12T02:37:11.776Z,992.66
2018-04-12T02:37:52.189Z,992.67
2018-04-12T02:38:32.590Z,992.67
2018-04-12T02:39:12.998Z,992.66
2018-04-12T02:39:53.432Z,992.69
2018-04-12T02:40:33.842Z,992.65
2018-04-12T02:41:14.235Z,992.65
2018-04-12T02:41:54.645Z,992.66
2018-04-12T02:42:35.036Z,992.61
2018-04-12T02:43:15.469Z,992.59
2018-04-12T02:43:55.843Z,992.59
2018-04-12T02:44:36.257Z,992.59
2018-04-12T02:45:16.654Z,992.59
2018-04-12T02:45:57.039Z,992.61
2018-04-12T02:46:37.440Z,992.58
2018-04-12T02:47:17.859Z,992.64
2018-04-12T02:47:58.282Z,992.62
2018-04-12T02:48:38.698Z,992.6
2018-04-12T02:49:19.083Z,992.62
2018-04-12T02:49:59.488Z,992.64
2018-04-12T02:50:39.930Z,992.64
2018-04-12T02:51:20.305Z,992.6
2018-04-12T02:52:00.714Z,992.59
2018-04-12T02:52:41.124Z,992.56
2018-04-12T02:53:21.507Z,992.56
2018-04-12T02:54:01.909Z,992.54
2018-04-12T02:56:29.678Z,992.44
2018-04-12T02:57:10.095Z,992.46
2018-04-12T02:57:50.489Z,992.46
2018-04-12T02:58:30.925Z,992.41
2018-04-12T02:59:11.346Z,992.39
2018-04-12T02:59:51.732Z,992.39
2018-04-12T03:00:32.179Z,992.38
2018-04-12T03:01:12.608Z,992.37
2018-04-12T03:01:53.029Z,992.37
2018-04-12T03:02:33.448Z,992.37
2018-04-12T03:03:13.860Z,992.35
2018-04-12T03:03:54.289Z,992.33
2018-04-12T03:04:34.654Z,992.32
2018-04-12T03:05:15.019Z,992.32
2018-04-12T03:05:55.410Z,992.35
2018-04-12T03:06:35.833Z,992.32
2018-04-12T03:07:16.217Z,992.31
2018-04-12T03:07:56.623Z,992.34
2018-04-12T03:08:37.056Z,992.34
2018-04-12T03:09:17.475Z,992.35
2018-04-12T03:09:57.881Z,992.36
2018-04-12T03:10:38.272Z,992.35
2018-04-12T03:11:18.679Z,992.33
2018-04-12T03:11:59.082Z,992.34
2018-04-12T03:12:39.494Z,992.31
2018-04-12T03:13:19.912Z,992.29
2018-04-12T03:14:00.302Z,992.31
2018-04-12T03:14:40.720Z,992.31
2018-04-12T03:15:21.120Z,992.32
2018-04-12T03:16:01.587Z,992.31
2018-04-12T03:16:41.927Z,992.35
2018-04-12T03:19:09.748Z,992.33
2018-04-12T03:19:50.062Z,992.35
2018-04-12T03:20:30.469Z,992.35
2018-04-12T03:21:10.879Z,992.33
2018-04-12T03:21:51.290Z,992.34
2018-04-12T03:22:31.741Z,992.34
2018-04-12T03:23:12.121Z,992.26
2018-04-12T03:23:52.565Z,992.25
2018-04-12T03:24:32.910Z,992.24
2018-04-12T03:25:13.271Z,992.22
2018-04-12T03:25:53.698Z,992.24
2018-04-12T03:26:34.066Z,992.24
2018-04-12T03:27:14.459Z,992.24
2018-04-12T03:27:54.846Z,992.24
2018-04-12T03:28:35.310Z,992.25
2018-04-12T03:29:15.690Z,992.28
2018-04-12T03:29:56.124Z,992.27
2018-04-12T03:30:36.539Z,992.29
2018-04-12T03:31:16.925Z,992.26
2018-04-12T03:31:57.356Z,992.2
2018-04-12T03:32:37.746Z,992.22
2018-04-12T03:33:18.168Z,992.22
2018-04-12T03:33:58.579Z,992.2
2018-04-12T03:34:38.994Z,992.17
2018-04-12T03:35:19.423Z,992.17
2018-04-12T03:35:59.856Z,992.19
2018-04-12T03:36:40.297Z,992.17
2018-04-12T03:37:20.708Z,992.18
2018-04-12T03:38:01.152Z,992.18
2018-04-12T03:38:41.579Z,992.2
2018-04-12T03:39:21.945Z,992.21
2018-04-12T03:40:02.374Z,992.16
2018-04-12T03:40:42.774Z,992.13
2018-04-12T03:41:23.196Z,992.16
2018-04-12T03:42:03.626Z,992.17
2018-04-12T03:42:44.075Z,992.15
2018-04-12T03:43:24.494Z,992.1
2018-04-12T03:44:04.844Z,992.12
2018-04-12T03:44:45.273Z,992.09
2018-04-12T03:45:25.700Z,992.09
2018-04-12T03:46:06.127Z,992.08
2018-04-12T03:46:46.544Z,992.08
2018-04-12T03:47:26.976Z,992.08
2018-04-12T03:49:24.675Z,992.05
2018-04-12T03:50:04.851Z,992.01
2018-04-12T03:50:45.210Z,992.02
2018-04-12T03:51:25.626Z,992.01
2018-04-12T03:52:06.023Z,991.97
2018-04-12T03:52:46.455Z,991.98
2018-04-12T03:53:26.849Z,991.97
2018-04-12T03:54:07.284Z,991.94
2018-04-12T03:54:47.664Z,991.95
2018-04-12T03:55:28.128Z,991.91
2018-04-12T03:56:08.490Z,991.94
2018-04-12T03:56:48.917Z,991.92
2018-04-12T03:57:29.338Z,991.93
2018-04-12T03:58:09.811Z,991.9
2018-04-12T03:58:50.200Z,991.92
2018-04-12T03:59:30.627Z,991.96
2018-04-12T04:00:11.054Z,991.95
2018-04-12T04:00:51.495Z,991.97
2018-04-12T04:01:31.928Z,991.96
2018-04-12T04:41:43.664Z,991.47
2018-04-12T04:42:24.387Z,991.5
2018-04-12T04:43:04.818Z,991.42
2018-04-12T04:43:45.255Z,991.45
2018-04-12T04:44:25.681Z,991.46
2018-04-12T04:45:06.098Z,991.48
2018-04-12T04:45:46.530Z,991.51
2018-04-12T04:46:26.929Z,991.5
2018-04-12T04:47:07.336Z,991.51
2018-04-12T04:47:47.770Z,991.53
2018-04-12T04:48:28.206Z,991.53
2018-04-12T04:49:08.597Z,991.58
2018-04-12T04:49:49.002Z,991.6
2018-04-12T04:50:29.390Z,991.59
2018-04-12T04:51:09.823Z,991.56
2018-04-12T04:51:50.215Z,991.55
2018-04-12T04:52:30.626Z,991.53
2018-04-12T04:53:11.027Z,991.55
2018-04-12T04:53:51.399Z,991.57
2018-04-12T04:54:31.837Z,991.58
2018-04-12T04:55:12.206Z,991.56
2018-04-12T04:55:52.617Z,991.6
2018-04-12T04:56:33.001Z,991.58
2018-04-12T04:57:13.390Z,991.53
2018-04-12T04:57:53.782Z,991.57
2018-04-12T04:58:34.217Z,991.57
2018-04-12T04:59:14.649Z,991.58
2018-04-12T04:59:55.012Z,991.6
2018-04-12T05:00:35.423Z,991.61
2018-04-12T05:01:15.856Z,991.61
2018-04-12T05:01:56.240Z,991.63
2018-04-12T05:02:36.643Z,991.6
2018-04-12T05:03:17.041Z,991.6
2018-04-12T05:03:57.437Z,991.63
2018-04-12T05:04:37.869Z,991.6
2018-04-12T05:05:18.284Z,991.58
2018-04-12T05:05:58.704Z,991.54
2018-04-12T05:06:39.082Z,991.57
2018-04-12T05:08:37.050Z,991.59
2018-04-12T05:09:17.452Z,991.6
2018-04-12T05:09:57.872Z,991.54
2018-04-12T05:10:38.305Z,991.57
2018-04-12T05:11:18.786Z,991.59
2018-04-12T05:11:59.187Z,991.57
2018-04-12T05:12:39.596Z,991.57
2018-04-12T05:13:20.061Z,991.54
2018-04-12T05:14:00.448Z,991.56
2018-04-12T05:14:40.877Z,991.54
2018-04-12T05:15:21.284Z,991.46
2018-04-12T05:16:01.647Z,991.46
2018-04-12T05:16:42.027Z,991.44
2018-04-12T05:17:22.574Z,991.42
2018-04-12T05:18:02.993Z,991.43
2018-04-12T05:18:43.377Z,991.39
2018-04-12T05:19:23.812Z,991.44
2018-04-12T05:20:04.273Z,991.42
2018-04-12T05:20:44.753Z,991.44
2018-04-12T05:21:25.151Z,991.42
2018-04-12T05:22:05.513Z,991.41
2018-04-12T05:22:46.008Z,991.42
2018-04-12T05:23:26.369Z,991.39
2018-04-12T05:24:06.791Z,991.38
2018-04-12T05:24:47.203Z,991.39
2018-04-12T05:25:27.549Z,991.36
2018-04-12T05:26:07.966Z,991.38
2018-04-12T05:26:48.444Z,991.35
2018-04-12T05:27:28.792Z,991.38
2018-04-12T05:28:34.568Z,991.34
2018-04-12T05:29:15.044Z,991.36
2018-04-12T05:30:04.672Z,991.4
2018-04-12T05:30:45.201Z,991.42
2018-04-12T05:31:25.542Z,991.41
2018-04-12T05:32:06.238Z,991.42
2018-04-12T05:32:46.711Z,991.4
2018-04-12T05:33:41.967Z,991.39
2018-04-12T05:34:22.465Z,991.41
2018-04-12T05:35:02.828Z,991.37
2018-04-12T05:35:43.291Z,991.37
2018-04-12T05:36:23.679Z,991.36
2018-04-12T05:37:04.072Z,991.35
2018-04-12T05:37:44.468Z,991.36
2018-04-12T05:38:24.846Z,991.37
2018-04-12T05:39:05.265Z,991.33
2018-04-12T05:39:46.368Z,991.29
2018-04-12T05:40:26.777Z,991.34
2018-04-12T05:41:07.247Z,991.36
2018-04-12T05:42:02.480Z,991.35
2018-04-12T05:42:42.897Z,991.37
2018-04-12T05:46:32.839Z,991.37
2018-04-12T05:47:28.249Z,991.38
2018-04-12T05:48:08.706Z,991.38
2018-04-12T05:48:49.214Z,991.37
2018-04-12T05:49:29.645Z,991.39
2018-04-12T05:50:10.033Z,991.39
2018-04-12T05:50:50.472Z,991.37
2018-04-12T05:51:38.501Z,991.35
2018-04-12T05:52:18.147Z,991.35
2018-04-12T05:52:58.873Z,991.32
2018-04-12T05:53:39.416Z,991.34
2018-04-12T05:54:19.549Z,991.34
2018-04-12T05:55:00.156Z,991.34
2018-04-12T05:55:40.576Z,991.37
2018-04-12T05:56:21.686Z,991.37
2018-04-12T05:57:02.399Z,991.32
2018-04-12T05:57:43.084Z,991.23
2018-04-12T05:58:23.504Z,991.26
2018-04-12T05:59:03.943Z,991.28
2018-04-12T05:59:44.300Z,991.26
2018-04-12T06:00:24.727Z,991.22
2018-04-12T06:01:05.149Z,991.27
2018-04-12T06:01:45.522Z,991.29
2018-04-12T06:02:25.950Z,991.29
2018-04-12T06:03:06.345Z,991.27
2018-04-12T06:03:46.759Z,991.32
2018-04-12T06:04:27.191Z,991.3
2018-04-12T06:05:07.533Z,991.31
2018-04-12T06:05:47.946Z,991.34
2018-04-12T06:06:28.401Z,991.32
2018-04-12T06:07:08.779Z,991.33
2018-04-12T06:07:49.196Z,991.31
2018-04-12T06:08:29.596Z,991.32
2018-04-12T06:09:09.994Z,991.28
2018-04-12T06:09:50.384Z,991.29
2018-04-12T06:10:31.180Z,991.34
2018-04-12T06:11:11.561Z,991.3
2018-04-12T06:11:51.921Z,991.27
2018-04-12T06:12:32.350Z,991.28
2018-04-12T06:13:12.728Z,991.3
2018-04-12T06:13:53.109Z,991.27
2018-04-12T06:14:33.526Z,991.3
2018-04-12T06:15:13.971Z,991.32
2018-04-12T06:15:54.392Z,991.33
2018-04-12T06:16:34.748Z,991.31
2018-04-12T06:17:15.116Z,991.29
2018-04-12T06:17:55.523Z,991.32
2018-04-12T06:18:35.908Z,991.29
2018-04-12T06:19:16.337Z,991.25
2018-04-12T06:19:56.725Z,991.23
2018-04-12T06:20:37.265Z,991.24
2018-04-12T06:21:17.596Z,991.29
2018-04-12T06:21:58.005Z,991.3
2018-04-12T06:22:38.363Z,991.33
2018-04-12T06:23:18.774Z,991.31
2018-04-12T06:23:59.216Z,991.34
2018-04-12T06:24:39.647Z,991.37
2018-04-12T06:25:20.031Z,991.32
2018-04-12T06:26:00.478Z,991.34
2018-04-12T06:26:40.900Z,991.33
2018-04-12T06:27:21.322Z,991.35
2018-04-12T06:28:01.694Z,991.31
2018-04-12T06:28:42.082Z,991.33
2018-04-12T06:29:22.998Z,991.33
2018-04-12T06:30:03.449Z,991.29
2018-04-12T06:30:43.652Z,991.34
2018-04-12T06:31:24.240Z,991.32
2018-04-12T06:32:04.854Z,991.35
2018-04-12T06:32:45.270Z,991.34
2018-04-12T06:33:25.683Z,991.34
2018-04-12T06:34:06.083Z,991.32
2018-04-12T06:34:46.510Z,991.34
2018-04-12T06:35:26.931Z,991.33
2018-04-12T06:36:07.284Z,991.33
2018-04-12T06:36:47.683Z,991.32
2018-04-12T06:37:28.115Z,991.3
2018-04-12T06:38:08.842Z,991.25
2018-04-12T06:38:49.218Z,991.27
2018-04-12T06:39:29.603Z,991.27
2018-04-12T06:40:10.018Z,991.25
2018-04-12T06:40:50.463Z,991.26
2018-04-12T06:41:30.826Z,991.32
2018-04-12T06:42:11.264Z,991.31
2018-04-12T06:42:51.626Z,991.37
2018-04-12T06:43:31.991Z,991.35
2018-04-12T06:44:12.636Z,991.33
2018-04-12T06:44:53.075Z,991.39
2018-04-12T06:45:33.455Z,991.39
2018-04-12T06:46:28.791Z,991.42
2018-04-12T06:47:09.210Z,991.39
2018-04-12T06:47:49.651Z,991.43
2018-04-12T06:48:30.193Z,991.47
2018-04-12T06:49:10.668Z,991.47
2018-04-12T06:49:51.122Z,991.43
2018-04-12T06:50:31.530Z,991.44
2018-04-12T06:51:11.947Z,991.41
2018-04-12T06:51:52.378Z,991.43
2018-04-12T06:52:32.948Z,991.45
2018-04-12T06:53:14.326Z,991.44
2018-04-12T06:53:54.772Z,991.41
2018-04-12T06:54:35.182Z,991.43
2018-04-12T06:55:15.573Z,991.44
2018-04-12T06:55:55.968Z,991.39
2018-04-12T06:56:36.443Z,991.35
2018-04-12T06:57:16.934Z,991.36
2018-04-12T06:57:57.324Z,991.38
2018-04-12T06:58:37.689Z,991.34
2018-04-12T06:59:19.004Z,991.31
2018-04-12T06:59:58.822Z,991.32
2018-04-12T07:00:39.218Z,991.32
2018-04-12T07:01:19.666Z,991.29
2018-04-12T07:02:00.081Z,991.3
2018-04-12T07:02:40.486Z,991.31
2018-04-12T07:03:20.812Z,991.26
2018-04-12T07:04:01.249Z,991.29
2018-04-12T07:04:41.654Z,991.29
2018-04-12T07:05:22.076Z,991.28
2018-04-12T07:06:04.510Z,991.26
2018-04-12T07:06:45.129Z,991.3
2018-04-12T07:07:25.529Z,991.22
2018-04-12T07:08:05.874Z,991.3
2018-04-12T07:08:46.261Z,991.21
2018-04-12T07:09:26.724Z,991.23
2018-04-12T07:10:07.208Z,991.23
2018-04-12T07:10:47.553Z,991.25
2018-04-12T07:11:27.990Z,991.23
2018-04-12T07:12:08.361Z,991.22
2018-04-12T07:12:58.677Z,991.25
2018-04-12T07:13:43.143Z,991.22
2018-04-12T07:17:29.237Z,991.22
2018-04-12T07:18:09.703Z,991.23
2018-04-12T07:18:50.006Z,991.24
2018-04-12T07:19:30.422Z,991.24
2018-04-12T07:20:10.838Z,991.24
2018-04-12T07:20:51.238Z,991.25
2018-04-12T07:21:31.730Z,991.23
2018-04-12T07:22:12.126Z,991.2
2018-04-12T07:22:52.558Z,991.23
2018-04-12T07:23:33.034Z,991.18
2018-04-12T07:24:13.402Z,991.18
2018-04-12T07:24:53.804Z,991.15
2018-04-12T07:25:34.232Z,991.1
2018-04-12T07:26:14.627Z,991.04
2018-04-12T07:26:55.250Z,991.02
2018-04-12T07:27:35.614Z,990.97
2018-04-12T07:28:16.330Z,990.94
2018-04-12T07:28:56.659Z,990.93
2018-04-12T07:29:37.426Z,990.98
2018-04-12T07:30:17.836Z,990.98
2018-04-12T07:30:58.275Z,991.01
2018-04-12T07:31:38.698Z,991.01
2018-04-12T07:32:19.179Z,990.99
2018-04-12T07:32:59.605Z,990.9
2018-04-12T07:33:40.009Z,990.86
2018-04-12T07:34:20.516Z,990.83
2018-04-12T07:35:00.848Z,990.84
2018-04-12T07:35:41.247Z,990.82
2018-04-12T07:36:21.640Z,990.91
2018-04-12T07:37:02.095Z,990.97
2018-04-12T07:37:42.457Z,991.01
2018-04-12T07:38:22.895Z,990.97
2018-04-12T07:39:03.252Z,991.03
2018-04-12T07:39:45.199Z,991.01
2018-04-12T07:40:25.638Z,990.99
2018-04-12T07:41:05.972Z,990.96
2018-04-12T07:41:46.391Z,990.96
2018-04-12T07:42:26.883Z,990.94
2018-04-12T07:43:07.316Z,990.98
2018-04-12T07:43:47.772Z,990.98
2018-04-12T07:44:28.143Z,991.04
2018-04-12T07:45:08.568Z,991.08
2018-04-12T07:45:48.962Z,991.07
2018-04-12T07:47:46.389Z,991.04
2018-04-12T07:48:26.802Z,991.01
2018-04-12T07:49:07.292Z,991.01
2018-04-12T07:49:47.647Z,991.04
2018-04-12T07:50:28.102Z,991.02
2018-04-12T07:51:08.465Z,991.03
2018-04-12T07:51:48.859Z,991.02
2018-04-12T07:52:29.250Z,991
2018-04-12T07:53:09.637Z,991.04
2018-04-12T07:53:50.090Z,991.09
2018-04-12T07:54:30.481Z,991.04
2018-04-12T07:56:47.129Z,990.99
2018-04-12T07:57:27.266Z,990.94
2018-04-12T07:58:08.200Z,990.96
2018-04-12T07:58:48.411Z,990.96
2018-04-12T08:01:09.813Z,991.02
2018-04-12T08:01:50.314Z,991.06
2018-04-12T08:02:30.921Z,991.03
2018-04-12T08:03:11.915Z,991.05
2018-04-12T08:03:52.615Z,991.09
2018-04-12T08:04:33.111Z,991.1
2018-04-12T08:05:13.870Z,991.1
2018-04-12T08:05:54.081Z,991.09
2018-04-12T08:06:34.989Z,991.09
2018-04-12T08:07:15.454Z,991.07
2018-04-12T08:07:56.635Z,991.12
2018-04-12T08:08:37.479Z,991.1
2018-04-12T08:09:18.678Z,991.16
2018-04-12T08:09:58.534Z,991.15
2018-04-12T08:10:38.970Z,991.14
2018-04-12T08:11:19.479Z,991.14
2018-04-12T08:11:59.895Z,991.15
2018-04-12T08:12:40.316Z,991.11
2018-04-12T08:13:20.726Z,991.1
2018-04-12T08:14:01.147Z,991.13
2018-04-12T08:14:41.515Z,991.09
2018-04-12T08:15:21.941Z,991.13
2018-04-12T08:16:02.329Z,991.14
2018-04-12T08:16:42.736Z,991.08
2018-04-12T08:17:23.170Z,991.09
2018-04-12T08:18:03.541Z,991.07
2018-04-12T08:18:44.023Z,991.05
2018-04-12T08:19:24.445Z,991.04
2018-04-12T08:20:04.784Z,991.01
2018-04-12T08:20:45.169Z,991
2018-04-12T08:21:25.589Z,990.99
2018-04-12T08:22:06.053Z,990.97
2018-04-12T08:22:46.470Z,990.95
2018-04-12T08:23:26.931Z,990.93
2018-04-12T08:24:07.365Z,990.98
2018-04-12T08:24:47.815Z,990.92
2018-04-12T08:25:28.198Z,990.92
2018-04-12T08:26:08.648Z,990.86
2018-04-12T08:26:49.032Z,990.86
2018-04-12T08:27:29.425Z,990.82
2018-04-12T08:28:09.820Z,990.82
2018-04-12T08:28:50.329Z,990.76
2018-04-12T08:29:30.665Z,990.73
2018-04-12T08:30:11.241Z,990.72
2018-04-12T08:30:51.598Z,990.75
2018-04-12T08:31:32.197Z,990.74
2018-04-12T08:32:12.535Z,990.76
2018-04-12T08:32:52.928Z,990.73
2018-04-12T08:33:33.331Z,990.74
2018-04-12T08:34:13.852Z,990.72
2018-04-12T08:34:54.417Z,990.7
2018-04-12T08:35:34.982Z,990.7
2018-04-12T08:36:15.570Z,990.68
2018-04-12T08:36:57.096Z,990.68
2018-04-12T08:37:37.541Z,990.71
2018-04-12T08:38:18.094Z,990.68
2018-04-12T08:38:58.606Z,990.66
2018-04-12T08:39:39.824Z,990.65
2018-04-12T08:40:21.529Z,990.69
2018-04-12T08:41:01.194Z,990.68
2018-04-12T08:41:41.956Z,990.64
2018-04-12T08:42:22.805Z,990.7
2018-04-12T08:43:03.607Z,990.69
2018-04-12T08:43:44.619Z,990.74
2018-04-12T08:44:24.904Z,990.74
2018-04-12T08:45:05.347Z,990.72
2018-04-12T08:45:45.739Z,990.75
2018-04-12T08:46:26.220Z,990.73
2018-04-12T08:47:06.556Z,990.76
2018-04-12T08:47:46.961Z,990.73
2018-04-12T08:48:27.425Z,990.75
2018-04-12T08:49:07.839Z,990.77
2018-04-12T08:49:48.276Z,990.73
2018-04-12T08:50:28.742Z,990.73
2018-04-12T08:51:09.150Z,990.74
2018-04-12T08:51:49.658Z,990.73
2018-04-12T08:52:29.954Z,990.74
2018-04-12T08:53:10.369Z,990.74
2018-04-12T08:53:50.757Z,990.7
2018-04-12T08:54:31.235Z,990.64
2018-04-12T08:55:11.604Z,990.68
2018-04-12T08:55:52.868Z,990.67
2018-04-12T08:56:36.063Z,990.66
2018-04-12T08:57:16.473Z,990.66
2018-04-12T08:57:56.890Z,990.65
2018-04-12T08:58:38.465Z,990.63
2018-04-12T08:59:19.032Z,990.63
2018-04-12T08:59:59.608Z,990.59
2018-04-12T09:00:40.073Z,990.58
2018-04-12T09:01:21.118Z,990.57
2018-04-12T09:02:04.428Z,990.57
2018-04-12T09:02:45.199Z,990.52
2018-04-12T09:03:25.699Z,990.53
2018-04-12T09:04:07.405Z,990.52
2018-04-12T09:04:48.920Z,990.51
2018-04-12T09:05:29.190Z,990.48
2018-04-12T09:06:09.967Z,990.52
2018-04-12T09:06:52.153Z,990.47
2018-04-12T09:07:32.668Z,990.49
2018-04-12T09:08:13.136Z,990.5
2018-04-12T09:08:54.977Z,990.5
2018-04-12T09:09:36.489Z,990.45
2018-04-12T09:10:17.873Z,990.43
2018-04-12T09:10:58.289Z,990.48
2018-04-12T09:11:38.935Z,990.47
2018-04-12T09:12:19.234Z,990.45
2018-04-12T09:12:59.742Z,990.5
2018-04-12T09:13:40.128Z,990.46
2018-04-12T09:14:20.580Z,990.47
2018-04-12T09:15:01.119Z,990.48
2018-04-12T09:15:43.162Z,990.45
2018-04-12T09:16:23.598Z,990.47
2018-04-12T09:17:03.998Z,990.45
2018-04-12T09:17:44.529Z,990.47
2018-04-12T09:18:24.907Z,990.47
2018-04-12T09:19:06.068Z,990.52
2018-04-12T09:19:46.598Z,990.5
2018-04-12T09:20:26.911Z,990.49
2018-04-12T09:21:07.398Z,990.54
2018-04-12T09:21:48.723Z,990.53
2018-04-12T09:22:28.762Z,990.51
2018-04-12T09:23:09.338Z,990.47
2018-04-12T09:23:49.816Z,990.54
2018-04-12T09:24:30.832Z,990.49
2018-04-12T09:25:10.835Z,990.48
2018-04-12T09:25:51.269Z,990.47
2018-04-12T09:26:32.071Z,990.44
2018-04-12T09:27:12.176Z,990.42
2018-04-12T09:27:52.816Z,990.44
2018-04-12T09:28:33.133Z,990.41
2018-04-12T09:29:13.532Z,990.47
2018-04-12T09:29:54.921Z,990.45
2018-04-12T09:30:35.587Z,990.45
2018-04-12T09:31:16.538Z,990.46